createdAt,value
2022-08-25T00:00:06.298Z,18.50
2022-08-25T00:00:29.033Z,18.50
2022-08-25T00:00:51.814Z,18.50
2022-08-25T00:01:17.173Z,18.50
2022-08-25T00:01:42.498Z,18.50
2022-08-25T00:02:08.980Z,18.40
2022-08-25T00:02:33.559Z,18.40
2022-08-25T00:02:58.156Z,18.40
2022-08-25T00:03:21.764Z,18.40
2022-08-25T00:03:46.305Z,18.40
2022-08-25T00:04:11.678Z,18.50
2022-08-25T00:04:36.529Z,18.50
2022-08-25T00:04:59.780Z,18.50
2022-08-25T00:05:26.129Z,18.50
2022-08-25T00:05:51.661Z,18.50
2022-08-25T00:06:14.560Z,18.50
2022-08-25T00:06:37.524Z,18.50
2022-08-25T00:07:03.175Z,18.60
2022-08-25T00:07:26.553Z,18.60
2022-08-25T00:07:49.377Z,18.60
2022-08-25T00:08:12.132Z,18.60
2022-08-25T00:08:38.065Z,18.60
2022-08-25T00:09:01.076Z,18.60
2022-08-25T00:09:27.931Z,18.60
2022-08-25T00:09:51.270Z,18.60
2022-08-25T00:10:14.095Z,18.60
2022-08-25T00:10:38.081Z,18.60
2022-08-25T00:11:03.732Z,18.60
2022-08-25T00:11:28.215Z,18.50
2022-08-25T00:11:53.304Z,18.50
2022-08-25T00:12:16.230Z,18.50
2022-08-25T00:12:39.174Z,18.50
2022-08-25T00:13:02.790Z,18.50
2022-08-25T00:13:25.719Z,18.50
2022-08-25T00:13:50.931Z,18.50
2022-08-25T00:14:15.124Z,18.50
2022-08-25T00:14:38.073Z,18.40
2022-08-25T00:15:01.105Z,18.50
2022-08-25T00:15:24.292Z,18.40
2022-08-25T00:15:47.386Z,18.40
2022-08-25T00:16:10.429Z,18.40
2022-08-25T00:16:36.515Z,18.40
2022-08-25T00:16:59.480Z,18.40
2022-08-25T00:17:22.275Z,18.40
2022-08-25T00:17:45.810Z,18.40
2022-08-25T00:18:19.537Z,18.40
2022-08-25T00:18:45.330Z,18.40
2022-08-25T00:19:11.520Z,18.50
2022-08-25T00:19:36.105Z,18.50
2022-08-25T00:19:58.945Z,18.50
2022-08-25T00:20:22.616Z,18.50
2022-08-25T00:20:49.034Z,18.50
2022-08-25T00:21:12.606Z,18.50
2022-08-25T00:21:35.319Z,18.50
2022-08-25T00:21:58.165Z,18.50
2022-08-25T00:22:21.021Z,18.50
2022-08-25T00:22:46.576Z,18.50
2022-08-25T00:23:09.331Z,18.50
2022-08-25T00:23:32.170Z,18.50
2022-08-25T00:23:55.270Z,18.50
2022-08-25T00:24:19.772Z,18.50
2022-08-25T00:24:42.890Z,18.50
2022-08-25T00:25:06.725Z,18.50
2022-08-25T00:25:29.489Z,18.50
2022-08-25T00:25:52.215Z,18.50
2022-08-25T00:26:15.870Z,18.50
2022-08-25T00:26:39.925Z,18.50
2022-08-25T00:27:04.698Z,18.50
2022-08-25T00:27:28.222Z,18.50
2022-08-25T00:27:51.119Z,18.60
2022-08-25T00:28:15.277Z,18.60
2022-08-25T00:28:38.372Z,18.60
2022-08-25T00:29:02.115Z,18.60
2022-08-25T00:29:27.985Z,18.60
2022-08-25T00:29:51.099Z,18.60
2022-08-25T00:30:15.903Z,18.60
2022-08-25T00:30:39.740Z,18.60
2022-08-25T00:31:02.632Z,18.60
2022-08-25T00:31:37.756Z,18.60
2022-08-25T00:32:01.896Z,18.60
2022-08-25T00:32:25.816Z,18.60
2022-08-25T00:32:51.497Z,18.60
2022-08-25T00:33:19.995Z,18.60
2022-08-25T00:33:45.555Z,18.70
2022-08-25T00:34:09.698Z,18.70
2022-08-25T00:34:34.644Z,18.70
2022-08-25T00:34:57.605Z,18.70
2022-08-25T00:35:20.717Z,18.70
2022-08-25T00:35:43.560Z,18.70
2022-08-25T00:36:07.502Z,18.70
2022-08-25T00:36:30.393Z,18.70
2022-08-25T00:36:53.633Z,18.70
2022-08-25T00:37:16.552Z,18.70
2022-08-25T00:37:39.393Z,18.70
2022-08-25T00:38:02.193Z,18.70
2022-08-25T00:38:25.160Z,18.70
2022-08-25T00:38:48.193Z,18.70
2022-08-25T00:39:11.699Z,18.70
2022-08-25T00:39:34.709Z,18.70
2022-08-25T00:39:58.721Z,18.70
2022-08-25T00:40:21.847Z,18.70
2022-08-25T00:40:44.723Z,18.70
2022-08-25T00:41:07.504Z,18.70
2022-08-25T00:41:30.628Z,18.70
2022-08-25T00:41:56.078Z,18.70
2022-08-25T00:42:21.095Z,18.70
2022-08-25T00:42:44.028Z,18.70
2022-08-25T00:43:06.987Z,18.70
2022-08-25T00:43:33.042Z,18.70
2022-08-25T00:43:57.238Z,18.70
2022-08-25T00:44:20.259Z,18.70
2022-08-25T00:44:44.113Z,18.80
2022-08-25T00:45:07.928Z,18.70
2022-08-25T00:45:31.489Z,18.70
2022-08-25T00:45:54.525Z,18.70
2022-08-25T00:46:18.816Z,18.70
2022-08-25T00:46:43.438Z,18.70
2022-08-25T00:47:06.953Z,18.70
2022-08-25T00:47:31.747Z,18.70
2022-08-25T00:47:56.714Z,18.60
2022-08-25T00:48:22.937Z,18.60
2022-08-25T00:48:51.337Z,18.60
2022-08-25T00:49:24.698Z,18.70
2022-08-25T00:49:49.823Z,18.60
2022-08-25T00:50:12.733Z,18.60
2022-08-25T00:50:35.622Z,18.60
2022-08-25T00:50:58.442Z,18.60
2022-08-25T00:51:29.812Z,18.60
2022-08-25T00:51:54.637Z,18.60
2022-08-25T00:52:20.552Z,18.60
2022-08-25T00:52:44.917Z,18.60
2022-08-25T00:53:07.791Z,18.60
2022-08-25T00:53:30.841Z,18.60
2022-08-25T00:53:54.221Z,18.60
2022-08-25T00:54:20.681Z,18.60
2022-08-25T00:54:46.492Z,18.60
2022-08-25T00:55:11.762Z,18.60
2022-08-25T00:55:37.180Z,18.60
2022-08-25T00:56:00.077Z,18.60
2022-08-25T00:56:23.242Z,18.60
2022-08-25T00:56:46.128Z,18.60
2022-08-25T00:57:09.957Z,18.60
2022-08-25T00:57:36.526Z,18.60
2022-08-25T00:58:03.158Z,18.60
2022-08-25T00:58:28.050Z,18.60
2022-08-25T00:58:50.919Z,18.50
2022-08-25T00:59:14.314Z,18.50
2022-08-25T00:59:37.174Z,18.50
2022-08-25T01:00:00.559Z,18.50
2022-08-25T01:00:25.676Z,18.50
2022-08-25T01:00:50.304Z,18.50
2022-08-25T01:01:13.261Z,18.50
2022-08-25T01:01:36.369Z,18.50
2022-08-25T01:01:59.513Z,18.50
2022-08-25T01:02:23.680Z,18.50
2022-08-25T01:02:46.728Z,18.50
2022-08-25T01:03:10.027Z,18.50
2022-08-25T01:03:35.758Z,18.50
2022-08-25T01:03:59.116Z,18.50
2022-08-25T01:04:22.031Z,18.50
2022-08-25T01:04:48.648Z,18.50
2022-08-25T01:05:12.650Z,18.50
2022-08-25T01:05:35.642Z,18.50
2022-08-25T01:05:58.961Z,18.50
2022-08-25T01:06:21.730Z,18.40
2022-08-25T01:06:44.964Z,18.40
2022-08-25T01:07:07.797Z,18.40
2022-08-25T01:07:38.704Z,18.40
2022-08-25T01:08:06.771Z,18.40
2022-08-25T01:08:29.954Z,18.50
2022-08-25T01:08:56.258Z,18.50
2022-08-25T01:09:19.024Z,18.40
2022-08-25T01:09:42.295Z,18.50
2022-08-25T01:10:07.891Z,18.50
2022-08-25T01:10:30.814Z,18.50
2022-08-25T01:10:53.834Z,18.50
2022-08-25T01:11:16.728Z,18.50
2022-08-25T01:11:40.049Z,18.50
2022-08-25T01:12:03.144Z,18.50
2022-08-25T01:12:25.919Z,18.50
2022-08-25T01:12:50.409Z,18.50
2022-08-25T01:13:16.633Z,18.50
2022-08-25T01:13:41.656Z,18.50
2022-08-25T01:14:06.637Z,18.50
2022-08-25T01:14:31.645Z,18.50
2022-08-25T01:14:54.625Z,18.50
2022-08-25T01:15:17.590Z,18.50
2022-08-25T01:15:40.615Z,18.50
2022-08-25T01:16:04.086Z,18.50
2022-08-25T01:16:27.440Z,18.50
2022-08-25T01:16:51.197Z,18.50
2022-08-25T01:17:16.992Z,18.50
2022-08-25T01:17:46.602Z,18.50
2022-08-25T01:18:09.590Z,18.50
2022-08-25T01:18:43.665Z,18.50
2022-08-25T01:19:07.710Z,18.50
2022-08-25T01:19:33.695Z,18.50
2022-08-25T01:19:56.435Z,18.50
2022-08-25T01:20:23.060Z,18.50
2022-08-25T01:20:53.970Z,18.50
2022-08-25T01:21:18.261Z,18.50
2022-08-25T01:21:41.893Z,18.50
2022-08-25T01:22:05.720Z,18.50
2022-08-25T01:22:28.661Z,18.50
2022-08-25T01:22:55.026Z,18.40
2022-08-25T01:23:18.634Z,18.40
2022-08-25T01:23:42.335Z,18.50
2022-08-25T01:24:06.305Z,18.50
2022-08-25T01:24:34.471Z,18.50
2022-08-25T01:24:59.849Z,18.50
2022-08-25T01:25:33.020Z,18.50
2022-08-25T01:25:59.579Z,18.50
2022-08-25T01:26:28.311Z,18.50
2022-08-25T01:26:53.734Z,18.50
2022-08-25T01:27:16.484Z,18.50
2022-08-25T01:27:39.419Z,18.50
2022-08-25T01:28:02.676Z,18.50
2022-08-25T01:28:25.504Z,18.50
2022-08-25T01:29:07.404Z,18.50
2022-08-25T01:29:30.208Z,18.50
2022-08-25T01:29:53.263Z,18.50
2022-08-25T01:30:16.085Z,18.50
2022-08-25T01:30:39.219Z,18.50
2022-08-25T01:31:02.032Z,18.60
2022-08-25T01:31:25.022Z,18.50
2022-08-25T01:31:47.985Z,18.60
2022-08-25T01:32:13.326Z,18.50
2022-08-25T01:32:36.420Z,18.50
2022-08-25T01:32:59.469Z,18.50
2022-08-25T01:33:22.270Z,18.50
2022-08-25T01:33:45.164Z,18.50
2022-08-25T01:34:12.369Z,18.50
2022-08-25T01:34:37.166Z,18.50
2022-08-25T01:35:00.057Z,18.50
2022-08-25T01:35:22.931Z,18.50
2022-08-25T01:35:45.854Z,18.50
2022-08-25T01:36:10.185Z,18.50
2022-08-25T01:36:33.505Z,18.50
2022-08-25T01:36:56.531Z,18.50
2022-08-25T01:37:19.409Z,18.50
2022-08-25T01:37:42.373Z,18.50
2022-08-25T01:38:06.515Z,18.50
2022-08-25T01:38:29.459Z,18.50
2022-08-25T01:38:52.366Z,18.50
2022-08-25T01:39:15.189Z,18.40
2022-08-25T01:39:38.135Z,18.40
2022-08-25T01:40:01.108Z,18.40
2022-08-25T01:40:26.703Z,18.40
2022-08-25T01:40:49.524Z,18.40
2022-08-25T01:41:12.254Z,18.40
2022-08-25T01:41:40.889Z,18.40
2022-08-25T01:42:28.694Z,18.40
2022-08-25T01:42:59.124Z,18.40
2022-08-25T01:43:26.931Z,18.40
2022-08-25T01:43:49.728Z,18.40
2022-08-25T01:44:16.167Z,18.40
2022-08-25T01:44:41.368Z,18.40
2022-08-25T01:45:05.833Z,18.40
2022-08-25T01:45:29.033Z,18.40
2022-08-25T01:45:52.239Z,18.40
2022-08-25T01:46:15.423Z,18.40
2022-08-25T01:46:38.983Z,18.40
2022-08-25T01:47:01.843Z,18.40
2022-08-25T01:47:24.773Z,18.40
2022-08-25T01:47:50.397Z,18.40
2022-08-25T01:48:13.273Z,18.40
2022-08-25T01:48:36.928Z,18.40
2022-08-25T01:49:02.773Z,18.40
2022-08-25T01:49:29.318Z,18.30
2022-08-25T01:49:52.213Z,18.30
2022-08-25T01:50:14.963Z,18.40
2022-08-25T01:50:37.871Z,18.30
2022-08-25T01:51:00.804Z,18.40
2022-08-25T01:51:25.858Z,18.40
2022-08-25T01:51:51.578Z,18.30
2022-08-25T01:52:20.523Z,18.40
2022-08-25T01:52:48.239Z,18.40
2022-08-25T01:53:16.874Z,18.40
2022-08-25T01:53:39.793Z,18.40
2022-08-25T01:54:02.947Z,18.40
2022-08-25T01:54:25.965Z,18.40
2022-08-25T01:54:49.003Z,18.40
2022-08-25T01:55:11.854Z,18.40
2022-08-25T01:55:51.871Z,18.40
2022-08-25T01:56:15.628Z,18.40
2022-08-25T01:56:39.399Z,18.40
2022-08-25T01:57:02.374Z,18.40
2022-08-25T01:57:30.294Z,18.40
2022-08-25T01:57:53.365Z,18.40
2022-08-25T01:58:16.165Z,18.40
2022-08-25T01:58:40.264Z,18.40
2022-08-25T01:59:03.262Z,18.40
2022-08-25T01:59:26.074Z,18.30
2022-08-25T01:59:49.024Z,18.40
2022-08-25T02:00:14.349Z,18.40
2022-08-25T02:00:37.390Z,18.40
2022-08-25T02:01:03.771Z,18.30
2022-08-25T02:01:26.650Z,18.40
2022-08-25T02:01:49.709Z,18.30
2022-08-25T02:02:12.725Z,18.30
2022-08-25T02:02:35.722Z,18.30
2022-08-25T02:02:59.023Z,18.30
2022-08-25T02:03:21.864Z,18.30
2022-08-25T02:03:46.714Z,18.30
2022-08-25T02:04:10.878Z,18.30
2022-08-25T02:04:34.320Z,18.30
2022-08-25T02:04:57.431Z,18.30
2022-08-25T02:05:23.545Z,18.30
2022-08-25T02:05:47.503Z,18.30
2022-08-25T02:06:12.041Z,18.30
2022-08-25T02:06:36.719Z,18.30
2022-08-25T02:07:00.475Z,18.30
2022-08-25T02:07:24.354Z,18.30
2022-08-25T02:07:47.133Z,18.30
2022-08-25T02:08:09.872Z,18.30
2022-08-25T02:08:32.912Z,18.30
2022-08-25T02:08:57.829Z,18.30
2022-08-25T02:09:20.604Z,18.30
2022-08-25T02:09:44.528Z,18.30
2022-08-25T02:10:07.772Z,18.30
2022-08-25T02:10:30.692Z,18.30
2022-08-25T02:10:55.831Z,18.30
2022-08-25T02:11:18.608Z,18.20
2022-08-25T02:11:42.532Z,18.20
2022-08-25T02:12:05.627Z,18.20
2022-08-25T02:12:29.372Z,18.20
2022-08-25T02:12:54.320Z,18.20
2022-08-25T02:13:31.005Z,18.20
2022-08-25T02:13:54.450Z,18.20
2022-08-25T02:14:18.468Z,18.20
2022-08-25T02:14:41.658Z,18.20
2022-08-25T02:15:05.719Z,18.20
2022-08-25T02:15:31.698Z,18.20
2022-08-25T02:15:56.698Z,18.20
2022-08-25T02:16:22.843Z,18.20
2022-08-25T02:16:47.821Z,18.20
2022-08-25T02:17:10.594Z,18.20
2022-08-25T02:17:34.284Z,18.30
2022-08-25T02:17:57.644Z,18.30
2022-08-25T02:18:20.928Z,18.30
2022-08-25T02:18:43.795Z,18.30
2022-08-25T02:19:07.100Z,18.30
2022-08-25T02:19:31.744Z,18.30
2022-08-25T02:19:57.025Z,18.30
2022-08-25T02:20:19.879Z,18.30
2022-08-25T02:20:42.705Z,18.30
2022-08-25T02:21:05.746Z,18.40
2022-08-25T02:21:28.739Z,18.40
2022-08-25T02:21:53.286Z,18.40
2022-08-25T02:22:16.155Z,18.40
2022-08-25T02:22:39.014Z,18.40
2022-08-25T02:23:04.552Z,18.40
2022-08-25T02:23:27.447Z,18.40
2022-08-25T02:23:50.797Z,18.40
2022-08-25T02:24:14.200Z,18.40
2022-08-25T02:24:37.987Z,18.40
2022-08-25T02:25:02.000Z,18.40
2022-08-25T02:25:24.825Z,18.50
2022-08-25T02:25:47.725Z,18.40
2022-08-25T02:26:10.646Z,18.40
2022-08-25T02:26:34.014Z,18.40
2022-08-25T02:26:58.165Z,18.40
2022-08-25T02:27:20.930Z,18.30
2022-08-25T02:27:43.811Z,18.30
2022-08-25T02:28:07.004Z,18.30
2022-08-25T02:28:30.045Z,18.40
2022-08-25T02:28:53.004Z,18.40
2022-08-25T02:29:17.002Z,18.40
2022-08-25T02:29:39.983Z,18.40
2022-08-25T02:30:02.944Z,18.30
2022-08-25T02:30:26.060Z,18.40
2022-08-25T02:30:49.089Z,18.40
2022-08-25T02:31:12.088Z,18.40
2022-08-25T02:31:35.640Z,18.40
2022-08-25T02:31:59.033Z,18.50
2022-08-25T02:32:21.707Z,18.50
2022-08-25T02:32:44.683Z,18.50
2022-08-25T02:33:07.458Z,18.50
2022-08-25T02:33:30.251Z,18.50
2022-08-25T02:33:56.368Z,18.50
2022-08-25T02:34:19.145Z,18.60
2022-08-25T02:34:41.868Z,18.60
2022-08-25T02:35:06.458Z,18.50
2022-08-25T02:35:29.810Z,18.60
2022-08-25T02:35:52.744Z,18.50
2022-08-25T02:36:16.208Z,18.50
2022-08-25T02:36:38.944Z,18.50
2022-08-25T02:37:03.563Z,18.50
2022-08-25T02:37:26.272Z,18.50
2022-08-25T02:37:50.594Z,18.50
2022-08-25T02:38:16.703Z,18.40
2022-08-25T02:38:39.680Z,18.50
2022-08-25T02:39:02.783Z,18.40
2022-08-25T02:39:27.001Z,18.40
2022-08-25T02:39:50.380Z,18.40
2022-08-25T02:40:13.580Z,18.40
2022-08-25T02:40:37.355Z,18.40
2022-08-25T02:41:00.897Z,18.40
2022-08-25T02:41:27.806Z,18.50
2022-08-25T02:41:54.452Z,18.50
2022-08-25T02:42:17.425Z,18.50
2022-08-25T02:42:40.241Z,18.50
2022-08-25T02:43:06.105Z,18.50
2022-08-25T02:43:29.409Z,18.50
2022-08-25T02:43:52.233Z,18.50
2022-08-25T02:44:15.038Z,18.50
2022-08-25T02:44:37.974Z,18.50
2022-08-25T02:45:01.000Z,18.50
2022-08-25T02:45:24.142Z,18.50
2022-08-25T02:45:47.632Z,18.50
2022-08-25T02:46:11.647Z,18.40
2022-08-25T02:46:34.610Z,18.40
2022-08-25T02:47:00.121Z,18.40
2022-08-25T02:47:26.776Z,18.40
2022-08-25T02:47:50.258Z,18.40
2022-08-25T02:48:13.009Z,18.40
2022-08-25T02:48:36.049Z,18.40
2022-08-25T02:48:59.178Z,18.40
2022-08-25T02:49:21.908Z,18.40
2022-08-25T02:49:44.840Z,18.40
2022-08-25T02:50:09.019Z,18.40
2022-08-25T02:50:32.520Z,18.30
2022-08-25T02:51:00.927Z,18.30
2022-08-25T02:51:24.460Z,18.30
2022-08-25T02:51:47.305Z,18.30
2022-08-25T02:52:11.840Z,18.40
2022-08-25T02:52:35.452Z,18.30
2022-08-25T02:52:58.239Z,18.40
2022-08-25T02:53:21.121Z,18.30
2022-08-25T02:53:46.152Z,18.30
2022-08-25T02:54:09.495Z,18.30
2022-08-25T02:54:32.561Z,18.30
2022-08-25T02:54:55.895Z,18.30
2022-08-25T02:55:18.934Z,18.30
2022-08-25T02:55:41.859Z,18.30
2022-08-25T02:56:05.009Z,18.30
2022-08-25T02:56:27.839Z,18.30
2022-08-25T02:56:50.834Z,18.30
2022-08-25T02:57:16.462Z,18.30
2022-08-25T02:57:39.260Z,18.30
2022-08-25T02:58:02.199Z,18.30
2022-08-25T02:58:25.824Z,18.40
2022-08-25T02:58:48.883Z,18.30
2022-08-25T02:59:11.684Z,18.30
2022-08-25T02:59:36.068Z,18.30
2022-08-25T02:59:59.303Z,18.40
2022-08-25T03:00:22.259Z,18.30
2022-08-25T03:00:46.219Z,18.30
2022-08-25T03:01:12.314Z,18.30
2022-08-25T03:01:35.487Z,18.30
2022-08-25T03:01:58.389Z,18.30
2022-08-25T03:02:21.389Z,18.30
2022-08-25T03:02:44.400Z,18.20
2022-08-25T03:03:07.261Z,18.20
2022-08-25T03:03:30.250Z,18.20
2022-08-25T03:03:53.202Z,18.20
2022-08-25T03:04:16.273Z,18.20
2022-08-25T03:04:39.129Z,18.10
2022-08-25T03:05:02.024Z,18.10
2022-08-25T03:05:25.089Z,18.10
2022-08-25T03:05:47.848Z,18.10
2022-08-25T03:06:11.269Z,18.10
2022-08-25T03:06:34.130Z,18.10
2022-08-25T03:06:57.191Z,18.10
2022-08-25T03:07:21.856Z,18.10
2022-08-25T03:07:47.810Z,18.10
2022-08-25T03:08:11.445Z,18.10
2022-08-25T03:08:34.316Z,18.10
2022-08-25T03:08:57.346Z,18.10
2022-08-25T03:09:20.540Z,18.00
2022-08-25T03:09:44.555Z,18.00
2022-08-25T03:10:08.771Z,18.00
2022-08-25T03:10:31.890Z,18.10
2022-08-25T03:10:54.631Z,18.00
2022-08-25T03:11:18.060Z,18.00
2022-08-25T03:11:43.270Z,18.10
2022-08-25T03:12:06.791Z,18.10
2022-08-25T03:12:29.701Z,18.10
2022-08-25T03:12:52.427Z,18.10
2022-08-25T03:13:15.281Z,18.10
2022-08-25T03:13:38.381Z,18.10
2022-08-25T03:14:01.256Z,18.10
2022-08-25T03:14:24.251Z,18.10
2022-08-25T03:14:47.011Z,18.10
2022-08-25T03:15:13.127Z,18.10
2022-08-25T03:15:38.136Z,18.10
2022-08-25T03:16:02.994Z,18.10
2022-08-25T03:16:27.728Z,18.10
2022-08-25T03:16:51.759Z,18.10
2022-08-25T03:17:14.645Z,18.10
2022-08-25T03:17:37.564Z,18.10
2022-08-25T03:18:02.561Z,18.10
2022-08-25T03:18:26.492Z,18.10
2022-08-25T03:18:49.650Z,18.10
2022-08-25T03:19:12.612Z,18.10
2022-08-25T03:19:35.440Z,18.10
2022-08-25T03:19:58.530Z,18.10
2022-08-25T03:20:21.706Z,18.10
2022-08-25T03:20:44.706Z,18.10
2022-08-25T03:21:08.045Z,18.20
2022-08-25T03:21:30.789Z,18.20
2022-08-25T03:21:56.386Z,18.20
2022-08-25T03:22:21.650Z,18.20
2022-08-25T03:22:45.078Z,18.20
2022-08-25T03:23:08.109Z,18.20
2022-08-25T03:23:30.813Z,18.30
2022-08-25T03:23:56.287Z,18.30
2022-08-25T03:24:19.112Z,18.30
2022-08-25T03:24:41.917Z,18.30
2022-08-25T03:25:24.911Z,18.30
2022-08-25T03:26:06.301Z,18.30
2022-08-25T03:26:47.927Z,18.30
2022-08-25T03:27:11.328Z,18.30
2022-08-25T03:27:34.945Z,18.30
2022-08-25T03:27:57.726Z,18.30
2022-08-25T03:28:20.691Z,18.30
2022-08-25T03:28:51.773Z,18.30
2022-08-25T03:29:15.713Z,18.30
2022-08-25T03:29:39.078Z,18.30
2022-08-25T03:30:03.758Z,18.30
2022-08-25T03:30:26.759Z,18.30
2022-08-25T03:30:53.362Z,18.40
2022-08-25T03:31:19.413Z,18.40
2022-08-25T03:31:45.043Z,18.40
2022-08-25T03:32:08.079Z,18.40
2022-08-25T03:32:31.593Z,18.40
2022-08-25T03:32:54.368Z,18.40
2022-08-25T03:33:17.324Z,18.40
2022-08-25T03:33:40.364Z,18.40
2022-08-25T03:34:03.399Z,18.40
2022-08-25T03:34:28.069Z,18.40
2022-08-25T03:34:51.729Z,18.40
2022-08-25T03:35:14.629Z,18.40
2022-08-25T03:35:37.524Z,18.40
2022-08-25T03:36:00.502Z,18.50
2022-08-25T03:36:23.430Z,18.40
2022-08-25T03:36:46.938Z,18.40
2022-08-25T03:37:10.311Z,18.50
2022-08-25T03:37:34.789Z,18.40
2022-08-25T03:38:00.457Z,18.40
2022-08-25T03:38:23.917Z,18.40
2022-08-25T03:38:46.908Z,18.40
2022-08-25T03:39:13.032Z,18.40
2022-08-25T03:39:35.881Z,18.40
2022-08-25T03:39:58.700Z,18.40
2022-08-25T03:40:23.616Z,18.40
2022-08-25T03:40:46.403Z,18.40
2022-08-25T03:41:15.108Z,18.40
2022-08-25T03:41:38.078Z,18.40
2022-08-25T03:42:01.632Z,18.40
2022-08-25T03:42:26.532Z,18.40
2022-08-25T03:42:49.515Z,18.40
2022-08-25T03:43:12.865Z,18.40
2022-08-25T03:43:40.052Z,18.40
2022-08-25T03:44:04.614Z,18.30
2022-08-25T03:44:27.400Z,18.30
2022-08-25T03:44:50.170Z,18.40
2022-08-25T03:45:13.477Z,18.30
2022-08-25T03:45:39.910Z,18.30
2022-08-25T03:46:02.829Z,18.30
2022-08-25T03:46:26.758Z,18.30
2022-08-25T03:46:51.434Z,18.30
2022-08-25T03:47:14.175Z,18.30
2022-08-25T03:47:37.120Z,18.30
2022-08-25T03:47:59.996Z,18.30
2022-08-25T03:48:22.860Z,18.30
2022-08-25T03:48:45.991Z,18.30
2022-08-25T03:49:10.091Z,18.30
2022-08-25T03:49:33.021Z,18.30
2022-08-25T03:49:57.758Z,18.30
2022-08-25T03:50:21.070Z,18.30
2022-08-25T03:50:50.620Z,18.30
2022-08-25T03:51:19.905Z,18.30
2022-08-25T03:51:44.486Z,18.30
2022-08-25T03:52:07.350Z,18.40
2022-08-25T03:52:30.286Z,18.40
2022-08-25T03:52:56.545Z,18.40
2022-08-25T03:53:19.460Z,18.40
2022-08-25T03:53:42.297Z,18.40
2022-08-25T03:54:05.343Z,18.30
2022-08-25T03:54:28.692Z,18.40
2022-08-25T03:54:51.784Z,18.40
2022-08-25T03:55:15.044Z,18.30
2022-08-25T03:55:37.985Z,18.30
2022-08-25T03:56:00.906Z,18.30
2022-08-25T03:56:24.730Z,18.30
2022-08-25T03:56:47.589Z,18.30
2022-08-25T03:57:10.294Z,18.30
2022-08-25T03:57:33.164Z,18.30
2022-08-25T03:57:58.666Z,18.30
2022-08-25T03:58:21.496Z,18.30
2022-08-25T03:58:44.771Z,18.30
2022-08-25T03:59:10.298Z,18.30
2022-08-25T03:59:33.657Z,18.30
2022-08-25T03:59:56.596Z,18.30
2022-08-25T04:00:19.569Z,18.30
2022-08-25T04:00:42.525Z,18.30
2022-08-25T04:01:05.417Z,18.30
2022-08-25T04:01:28.326Z,18.30
2022-08-25T04:01:55.064Z,18.40
2022-08-25T04:02:18.847Z,18.40
2022-08-25T04:02:43.288Z,18.30
2022-08-25T04:03:09.298Z,18.30
2022-08-25T04:03:32.133Z,18.40
2022-08-25T04:03:55.156Z,18.40
2022-08-25T04:04:18.137Z,18.40
2022-08-25T04:04:41.050Z,18.30
2022-08-25T04:05:04.518Z,18.40
2022-08-25T04:05:28.133Z,18.40
2022-08-25T04:05:51.419Z,18.40
2022-08-25T04:06:14.433Z,18.40
2022-08-25T04:06:38.408Z,18.40
2022-08-25T04:07:04.089Z,18.40
2022-08-25T04:07:30.698Z,18.40
2022-08-25T04:07:56.080Z,18.40
2022-08-25T04:08:19.514Z,18.40
2022-08-25T04:08:42.642Z,18.50
2022-08-25T04:09:05.577Z,18.50
2022-08-25T04:09:28.627Z,18.50
2022-08-25T04:09:56.467Z,18.50
2022-08-25T04:10:20.883Z,18.50
2022-08-25T04:10:43.957Z,18.50
2022-08-25T04:11:08.141Z,18.60
2022-08-25T04:11:30.977Z,18.60
2022-08-25T04:11:56.078Z,18.50
2022-08-25T04:12:19.182Z,18.60
2022-08-25T04:12:42.999Z,18.60
2022-08-25T04:13:05.922Z,18.60
2022-08-25T04:13:29.534Z,18.60
2022-08-25T04:13:53.025Z,18.60
2022-08-25T04:14:16.587Z,18.70
2022-08-25T04:14:39.684Z,18.60
2022-08-25T04:15:02.610Z,18.60
2022-08-25T04:15:28.552Z,18.60
2022-08-25T04:15:52.905Z,18.70
2022-08-25T04:16:17.110Z,18.70
2022-08-25T04:16:40.252Z,18.70
2022-08-25T04:17:03.170Z,18.70
2022-08-25T04:17:26.069Z,18.70
2022-08-25T04:17:51.881Z,18.70
2022-08-25T04:18:14.946Z,18.70
2022-08-25T04:18:37.866Z,18.70
2022-08-25T04:19:02.619Z,18.80
2022-08-25T04:19:25.534Z,18.80
2022-08-25T04:19:48.366Z,18.80
2022-08-25T04:20:14.136Z,18.80
2022-08-25T04:20:37.359Z,18.80
2022-08-25T04:21:03.641Z,18.80
2022-08-25T04:21:26.670Z,18.80
2022-08-25T04:21:49.523Z,18.80
2022-08-25T04:22:13.292Z,18.90
2022-08-25T04:22:36.990Z,18.90
2022-08-25T04:23:03.014Z,18.90
2022-08-25T04:23:28.629Z,18.90
2022-08-25T04:23:52.073Z,18.90
2022-08-25T04:24:15.008Z,18.90
2022-08-25T04:24:40.244Z,18.90
2022-08-25T04:25:03.568Z,18.90
2022-08-25T04:25:29.476Z,18.90
2022-08-25T04:25:55.738Z,18.90
2022-08-25T04:26:22.168Z,18.90
2022-08-25T04:26:46.618Z,18.90
2022-08-25T04:27:09.588Z,19.00
2022-08-25T04:27:32.408Z,18.90
2022-08-25T04:27:58.024Z,18.90
2022-08-25T04:28:20.794Z,19.00
2022-08-25T04:28:43.610Z,19.00
2022-08-25T04:29:07.100Z,19.00
2022-08-25T04:29:29.972Z,19.00
2022-08-25T04:29:52.823Z,18.90
2022-08-25T04:30:16.213Z,19.00
2022-08-25T04:30:42.789Z,18.90
2022-08-25T04:31:08.069Z,18.90
2022-08-25T04:31:30.994Z,18.90
2022-08-25T04:31:54.250Z,18.90
2022-08-25T04:32:17.166Z,18.90
2022-08-25T04:32:40.141Z,18.90
2022-08-25T04:33:02.979Z,18.90
2022-08-25T04:33:25.718Z,18.90
2022-08-25T04:33:50.301Z,18.90
2022-08-25T04:34:28.854Z,18.90
2022-08-25T04:34:54.061Z,18.90
2022-08-25T04:35:17.071Z,18.90
2022-08-25T04:35:41.340Z,18.90
2022-08-25T04:36:07.747Z,18.90
2022-08-25T04:36:34.560Z,18.90
2022-08-25T04:36:57.780Z,18.90
2022-08-25T04:37:20.636Z,18.90
2022-08-25T04:37:43.755Z,19.00
2022-08-25T04:38:08.110Z,19.00
2022-08-25T04:38:32.425Z,19.00
2022-08-25T04:38:55.350Z,19.00
2022-08-25T04:39:20.385Z,19.00
2022-08-25T04:39:43.480Z,19.00
2022-08-25T04:40:07.874Z,19.00
2022-08-25T04:40:32.682Z,19.10
2022-08-25T04:40:58.356Z,19.10
2022-08-25T04:41:22.715Z,19.10
2022-08-25T04:41:48.561Z,19.10
2022-08-25T04:42:11.726Z,19.10
2022-08-25T04:42:35.298Z,19.20
2022-08-25T04:42:58.297Z,19.20
2022-08-25T04:43:21.221Z,19.20
2022-08-25T04:43:44.591Z,19.20
2022-08-25T04:44:07.436Z,19.20
2022-08-25T04:44:30.479Z,19.20
2022-08-25T04:44:56.086Z,19.20
2022-08-25T04:45:19.176Z,19.20
2022-08-25T04:45:42.087Z,19.20
2022-08-25T04:46:07.027Z,19.30
2022-08-25T04:46:31.596Z,19.30
2022-08-25T04:46:54.390Z,19.40
2022-08-25T04:47:17.436Z,19.40
2022-08-25T04:47:41.516Z,19.40
2022-08-25T04:48:04.994Z,19.40
2022-08-25T04:48:27.920Z,19.50
2022-08-25T04:48:51.773Z,19.50
2022-08-25T04:49:14.579Z,19.50
2022-08-25T04:49:37.755Z,19.60
2022-08-25T04:50:02.475Z,19.60
2022-08-25T04:50:25.829Z,19.60
2022-08-25T04:50:48.565Z,19.70
2022-08-25T04:51:13.024Z,19.70
2022-08-25T04:51:37.385Z,19.70
2022-08-25T04:52:00.374Z,19.70
2022-08-25T04:52:23.214Z,19.80
2022-08-25T04:52:49.509Z,19.80
2022-08-25T04:53:13.924Z,19.80
2022-08-25T04:53:39.799Z,19.80
2022-08-25T04:54:05.720Z,19.80
2022-08-25T04:54:28.537Z,19.80
2022-08-25T04:55:00.373Z,19.80
2022-08-25T04:55:24.383Z,19.80
2022-08-25T04:55:48.053Z,19.80
2022-08-25T04:56:12.034Z,19.80
2022-08-25T04:56:35.083Z,19.80
2022-08-25T04:56:58.101Z,19.80
2022-08-25T04:57:25.473Z,19.80
2022-08-25T04:57:48.708Z,19.80
2022-08-25T04:58:16.694Z,19.80
2022-08-25T04:58:39.823Z,19.80
2022-08-25T04:59:03.540Z,19.80
2022-08-25T04:59:29.925Z,19.80
2022-08-25T04:59:53.808Z,19.70
2022-08-25T05:00:18.327Z,19.80
2022-08-25T05:00:41.854Z,19.70
2022-08-25T05:01:05.003Z,19.70
2022-08-25T05:01:28.190Z,19.70
2022-08-25T05:01:52.342Z,19.70
2022-08-25T05:02:15.574Z,19.70
2022-08-25T05:02:38.627Z,19.70
2022-08-25T05:03:01.558Z,19.70
2022-08-25T05:03:24.413Z,19.70
2022-08-25T05:03:51.606Z,19.70
2022-08-25T05:04:28.212Z,19.70
2022-08-25T05:04:55.619Z,19.70
2022-08-25T05:05:18.590Z,19.70
2022-08-25T05:05:41.494Z,19.70
2022-08-25T05:06:04.505Z,19.70
2022-08-25T05:06:27.741Z,19.70
2022-08-25T05:06:53.449Z,19.70
2022-08-25T05:07:16.528Z,19.70
2022-08-25T05:07:39.460Z,19.70
2022-08-25T05:08:02.389Z,19.70
2022-08-25T05:08:26.990Z,19.70
2022-08-25T05:08:49.959Z,19.70
2022-08-25T05:09:12.848Z,19.70
2022-08-25T05:09:43.001Z,19.70
2022-08-25T05:10:07.456Z,19.70
2022-08-25T05:10:31.176Z,19.60
2022-08-25T05:10:54.813Z,19.60
2022-08-25T05:11:19.258Z,19.70
2022-08-25T05:11:44.018Z,19.60